createdAt,value
2023-04-10T00:01:09.408Z,100.00
2023-04-10T00:03:37.037Z,100.00
2023-04-10T00:06:03.614Z,100.00
2023-04-10T00:08:31.148Z,100.00
2023-04-10T00:10:57.557Z,100.00
2023-04-10T00:13:23.963Z,100.00
2023-04-10T00:15:50.840Z,100.00
2023-04-10T00:18:17.351Z,100.00
2023-04-10T00:20:44.800Z,100.00
2023-04-10T00:23:11.139Z,100.00
2023-04-10T00:25:37.482Z,100.00
2023-04-10T00:28:03.826Z,100.00
2023-04-10T00:30:30.140Z,100.00
2023-04-10T00:32:56.546Z,100.00
2023-04-10T00:35:22.943Z,100.00
2023-04-10T00:37:50.317Z,100.00
2023-04-10T00:40:19.825Z,100.00
2023-04-10T00:42:46.161Z,100.00
2023-04-10T00:45:12.497Z,100.00
2023-04-10T00:47:38.979Z,100.00
2023-04-10T00:50:06.704Z,100.00
2023-04-10T00:52:33.161Z,100.00
2023-04-10T00:54:59.496Z,100.00
2023-04-10T00:57:27.111Z,100.00
2023-04-10T00:59:53.961Z,100.00
2023-04-10T01:02:20.553Z,100.00
2023-04-10T01:04:48.103Z,100.00
2023-04-10T01:07:27.842Z,100.00
2023-04-10T01:10:05.187Z,100.00
2023-04-10T01:12:34.259Z,100.00
2023-04-10T01:15:02.265Z,100.00
2023-04-10T01:17:35.558Z,100.00
2023-04-10T01:20:04.388Z,100.00
2023-04-10T01:23:00.459Z,100.00
2023-04-10T01:25:29.679Z,100.00
2023-04-10T01:28:11.721Z,100.00
2023-04-10T01:30:38.395Z,100.00
2023-04-10T01:33:06.929Z,100.00
2023-04-10T01:35:33.774Z,100.00
2023-04-10T01:38:01.380Z,100.00
2023-04-10T01:40:29.370Z,100.00
2023-04-10T01:42:56.702Z,100.00
2023-04-10T01:45:27.789Z,100.00
2023-04-10T01:47:54.806Z,100.00
2023-04-10T01:50:23.476Z,100.00
2023-04-10T01:52:51.189Z,100.00
2023-04-10T01:55:17.722Z,100.00
2023-04-10T01:57:45.682Z,100.00
2023-04-10T02:00:12.831Z,100.00
2023-04-10T02:02:39.295Z,100.00
2023-04-10T02:05:05.980Z,100.00
2023-04-10T02:07:32.320Z,100.00
2023-04-10T02:10:02.565Z,100.00
2023-04-10T02:12:30.946Z,100.00
2023-04-10T02:15:01.889Z,100.00
2023-04-10T02:17:31.451Z,100.00
2023-04-10T02:19:58.577Z,100.00
2023-04-10T02:22:25.735Z,100.00
2023-04-10T02:24:52.674Z,100.00
2023-04-10T02:27:32.325Z,100.00
2023-04-10T02:29:59.038Z,100.00
2023-04-10T02:32:25.700Z,100.00
2023-04-10T02:34:54.187Z,100.00
2023-04-10T02:37:20.641Z,100.00
2023-04-10T02:39:47.017Z,100.00
2023-04-10T02:42:13.354Z,100.00
2023-04-10T02:44:39.699Z,100.00
2023-04-10T02:47:07.079Z,100.00
2023-04-10T02:49:34.952Z,100.00
2023-04-10T02:52:01.629Z,100.00
2023-04-10T02:54:28.057Z,100.00
2023-04-10T02:56:54.420Z,100.00
2023-04-10T02:59:20.750Z,100.00
2023-04-10T03:01:47.514Z,100.00
2023-04-10T03:04:14.021Z,100.00
2023-04-10T03:06:40.775Z,100.00
2023-04-10T03:09:08.189Z,100.00
2023-04-10T03:11:34.509Z,100.00
2023-04-10T03:14:01.067Z,100.00
2023-04-10T03:16:27.466Z,100.00
2023-04-10T03:18:53.868Z,100.00
2023-04-10T03:21:20.231Z,100.00
2023-04-10T03:23:46.557Z,100.00
2023-04-10T03:26:13.131Z,100.00
2023-04-10T03:28:39.845Z,100.00
2023-04-10T03:31:06.504Z,100.00
2023-04-10T03:33:32.962Z,100.00
2023-04-10T03:36:01.329Z,100.00
2023-04-10T03:38:27.705Z,100.00
2023-04-10T03:41:01.916Z,100.00
2023-04-10T03:43:29.375Z,100.00
2023-04-10T03:45:55.945Z,100.00
2023-04-10T03:48:22.388Z,100.00
2023-04-10T03:50:48.763Z,100.00
2023-04-10T03:53:16.111Z,100.00
2023-04-10T03:55:42.463Z,100.00
2023-04-10T03:58:08.840Z,100.00
2023-04-10T04:00:35.279Z,100.00
2023-04-10T04:03:03.227Z,100.00
2023-04-10T04:05:30.831Z,100.00
2023-04-10T04:07:57.236Z,100.00
2023-04-10T04:10:24.207Z,100.00
2023-04-10T04:12:50.719Z,100.00
2023-04-10T04:15:17.044Z,100.00
2023-04-10T04:17:43.441Z,100.00
2023-04-10T04:20:10.387Z,100.00
2023-04-10T04:22:37.218Z,100.00
2023-04-10T04:25:07.958Z,100.00
2023-04-10T04:27:34.288Z,100.00
2023-04-10T04:30:00.896Z,100.00
2023-04-10T04:32:27.346Z,100.00
2023-04-10T04:34:53.676Z,100.00
2023-04-10T04:37:20.003Z,100.00
2023-04-10T04:39:46.352Z,100.00
2023-04-10T04:42:12.895Z,100.00
2023-04-10T04:44:39.262Z,100.00
2023-04-10T04:47:06.201Z,100.00
2023-04-10T04:49:32.575Z,100.00
2023-04-10T04:51:58.913Z,100.00
2023-04-10T04:54:25.246Z,100.00
2023-04-10T04:56:51.584Z,100.00
2023-04-10T04:59:18.070Z,100.00
2023-04-10T05:01:44.570Z,100.00
2023-04-10T05:04:11.465Z,100.00
2023-04-10T05:06:38.049Z,100.00
2023-04-10T05:09:04.422Z,100.00
2023-04-10T05:11:30.741Z,100.00
2023-04-10T05:13:57.059Z,100.00
2023-04-10T05:16:23.799Z,100.00
2023-04-10T05:18:50.295Z,100.00
2023-04-10T05:21:16.746Z,100.00
2023-04-10T05:23:43.097Z,98.79
2023-04-10T05:26:11.202Z,100.00
2023-04-10T05:28:37.581Z,100.00
2023-04-10T05:31:04.044Z,99.90
2023-04-10T05:33:30.391Z,97.89
2023-04-10T05:35:56.779Z,95.60
2023-04-10T05:38:23.175Z,95.22
2023-04-10T05:40:49.500Z,88.37
2023-04-10T05:43:15.829Z,84.75
2023-04-10T05:45:45.433Z,83.04
2023-04-10T05:48:11.775Z,79.05
2023-04-10T05:50:38.125Z,76.67
2023-04-10T05:53:04.531Z,75.28
2023-04-10T05:55:31.233Z,71.49
2023-04-10T05:57:57.734Z,69.90
2023-04-10T06:00:24.109Z,69.40
2023-04-10T06:02:50.981Z,68.43
2023-04-10T06:05:17.708Z,67.73
2023-04-10T06:07:44.154Z,66.99
2023-04-10T06:10:10.828Z,66.41
2023-04-10T06:12:37.237Z,65.20
2023-04-10T06:15:03.829Z,64.53
2023-04-10T06:17:30.876Z,63.72
2023-04-10T06:19:59.498Z,63.66
2023-04-10T06:22:26.784Z,64.63
2023-04-10T06:24:53.113Z,63.82
2023-04-10T06:27:19.539Z,62.73
2023-04-10T06:29:46.093Z,63.61
2023-04-10T06:32:12.440Z,61.96
2023-04-10T06:34:38.784Z,60.59
2023-04-10T06:37:05.313Z,60.06
2023-04-10T06:39:31.670Z,61.08
2023-04-10T06:41:58.167Z,59.45
2023-04-10T06:44:24.499Z,59.66
2023-04-10T06:46:50.890Z,58.57
2023-04-10T06:49:17.277Z,59.39
2023-04-10T06:51:45.750Z,58.81
2023-04-10T06:54:15.191Z,61.46
2023-04-10T06:56:42.040Z,60.37
2023-04-10T06:59:08.367Z,59.96
2023-04-10T07:01:35.866Z,58.79
2023-04-10T07:04:02.476Z,58.78
2023-04-10T07:06:29.011Z,58.28
2023-04-10T07:08:55.676Z,58.55
2023-04-10T07:11:22.211Z,58.69
2023-04-10T07:13:48.787Z,59.80
2023-04-10T07:16:17.004Z,58.30
2023-04-10T07:18:44.659Z,60.32
2023-04-10T07:21:13.301Z,59.88
2023-04-10T07:23:39.778Z,61.18
2023-04-10T07:26:06.348Z,61.08
2023-04-10T07:28:33.848Z,60.61
2023-04-10T07:31:00.182Z,61.00
2023-04-10T07:33:27.135Z,60.97
2023-04-10T07:35:53.952Z,60.77
2023-04-10T07:38:21.352Z,58.81
2023-04-10T07:40:47.755Z,58.11
2023-04-10T07:43:14.124Z,58.93
2023-04-10T07:45:41.073Z,58.01
2023-04-10T07:48:07.785Z,57.19
2023-04-10T07:50:34.208Z,58.67
2023-04-10T07:53:03.574Z,56.57
2023-04-10T07:55:29.959Z,55.75
2023-04-10T07:57:56.291Z,53.80
2023-04-10T08:00:22.612Z,53.46
2023-04-10T08:02:49.155Z,53.28
2023-04-10T08:05:15.731Z,52.62
2023-04-10T08:07:42.273Z,51.80
2023-04-10T08:10:08.973Z,50.64
2023-04-10T08:12:36.105Z,50.19
2023-04-10T08:15:02.520Z,50.38
2023-04-10T08:17:28.903Z,51.76
2023-04-10T08:19:55.783Z,53.28
2023-04-10T08:22:22.209Z,55.61
2023-04-10T08:24:48.582Z,58.27
2023-04-10T08:27:16.274Z,58.16
2023-04-10T08:29:42.928Z,58.47
2023-04-10T08:32:09.261Z,54.35
2023-04-10T08:34:35.699Z,53.08
2023-04-10T08:37:05.309Z,50.48
2023-04-10T08:39:31.707Z,48.63
2023-04-10T08:41:58.054Z,46.80
2023-04-10T08:44:24.447Z,46.08
2023-04-10T08:46:51.867Z,46.49
2023-04-10T08:49:24.324Z,46.12
2023-04-10T08:51:56.229Z,46.09
2023-04-10T08:54:29.393Z,45.30
2023-04-10T08:56:56.312Z,45.96
2023-04-10T08:59:22.801Z,46.42
2023-04-10T09:01:49.408Z,45.10
2023-04-10T09:04:17.879Z,43.51
2023-04-10T09:06:44.442Z,43.98
2023-04-10T09:09:10.840Z,45.07
2023-04-10T09:11:52.730Z,44.53
2023-04-10T09:14:23.338Z,44.47
2023-04-10T09:16:51.446Z,44.30
2023-04-10T09:19:38.162Z,43.52
2023-04-10T09:22:05.306Z,44.37
2023-04-10T09:24:36.229Z,42.94
2023-04-10T09:27:02.703Z,44.39
2023-04-10T09:29:38.803Z,44.70
2023-04-10T09:32:05.159Z,44.21
2023-04-10T09:34:31.564Z,46.30
2023-04-10T09:36:58.735Z,43.43
2023-04-10T09:39:35.448Z,44.78
2023-04-10T09:42:02.168Z,44.02
2023-04-10T09:44:31.138Z,43.62
2023-04-10T09:47:20.717Z,43.54
2023-04-10T09:49:52.212Z,43.36
2023-04-10T09:52:19.794Z,43.64
2023-04-10T09:54:47.245Z,42.69
2023-04-10T09:57:15.916Z,44.03
2023-04-10T09:59:44.768Z,41.84
2023-04-10T10:02:12.999Z,44.78
2023-04-10T10:04:41.293Z,43.82
2023-04-10T10:07:07.914Z,43.08
2023-04-10T10:09:35.395Z,44.52
2023-04-10T10:12:03.178Z,44.11
2023-04-10T10:14:30.205Z,43.76
2023-04-10T10:16:57.434Z,44.19
2023-04-10T10:19:53.352Z,43.55
2023-04-10T10:22:20.683Z,44.55
2023-04-10T10:24:47.663Z,44.00
2023-04-10T10:27:15.546Z,44.73
2023-04-10T10:29:44.135Z,42.95
2023-04-10T10:32:11.417Z,43.88
2023-04-10T10:34:38.363Z,44.33
2023-04-10T10:37:05.832Z,45.97
2023-04-10T10:39:44.900Z,45.53
2023-04-10T10:42:18.627Z,43.66
2023-04-10T10:44:48.872Z,44.93
2023-04-10T10:47:19.769Z,44.02
2023-04-10T10:49:59.288Z,45.58
2023-04-10T10:52:45.192Z,44.84
2023-04-10T10:55:32.148Z,45.41
2023-04-10T10:58:00.422Z,44.71
2023-04-10T11:00:27.956Z,43.53
2023-04-10T11:03:10.662Z,43.48
2023-04-10T11:05:49.233Z,44.43
2023-04-10T11:08:15.646Z,46.62
2023-04-10T11:11:07.245Z,46.18
2023-04-10T11:13:35.045Z,44.73
2023-04-10T11:16:02.923Z,44.38
2023-04-10T11:18:44.724Z,45.82
2023-04-10T11:21:12.134Z,45.12
2023-04-10T11:23:39.176Z,43.58
2023-04-10T11:26:06.350Z,43.41
2023-04-10T11:28:33.008Z,44.64
2023-04-10T11:31:19.542Z,44.02
2023-04-10T11:33:47.130Z,45.11
2023-04-10T11:36:14.744Z,44.19
2023-04-10T11:38:41.252Z,44.50
2023-04-10T11:41:07.609Z,45.09
2023-04-10T11:43:35.124Z,45.29
2023-04-10T11:46:06.168Z,44.90
2023-04-10T11:48:33.163Z,45.70
2023-04-10T11:51:01.676Z,44.26
2023-04-10T11:53:29.981Z,43.03
2023-04-10T11:55:56.780Z,42.68
2023-04-10T11:58:24.088Z,43.41
2023-04-10T12:01:00.629Z,42.38
2023-04-10T12:03:37.733Z,40.89
2023-04-10T12:06:04.658Z,42.28
2023-04-10T12:08:31.662Z,41.71
2023-04-10T12:10:58.270Z,42.52
2023-04-10T12:13:25.475Z,43.98
2023-04-10T12:15:52.019Z,41.94
2023-04-10T12:18:18.671Z,41.76
2023-04-10T12:20:45.048Z,42.44
2023-04-10T12:23:11.603Z,43.21
2023-04-10T12:25:39.255Z,42.29
2023-04-10T12:28:05.573Z,40.67
2023-04-10T12:30:31.930Z,41.36
2023-04-10T12:32:58.403Z,42.15
2023-04-10T12:35:40.268Z,43.06
2023-04-10T12:38:06.652Z,43.00
2023-04-10T12:40:33.405Z,41.48
2023-04-10T12:42:59.713Z,41.00
2023-04-10T12:45:43.089Z,42.83
2023-04-10T12:48:09.454Z,41.52
2023-04-10T12:50:46.091Z,41.45
2023-04-10T12:53:14.156Z,41.38
2023-04-10T12:55:42.386Z,43.89
2023-04-10T12:58:18.524Z,40.43
2023-04-10T13:00:45.820Z,40.62
2023-04-10T13:03:12.424Z,40.74
2023-04-10T13:05:39.415Z,41.42
2023-04-10T13:08:05.811Z,43.45
2023-04-10T13:10:32.373Z,40.47
2023-04-10T13:12:59.692Z,44.19
2023-04-10T13:15:26.085Z,41.75
2023-04-10T13:17:52.425Z,40.37
2023-04-10T13:20:19.261Z,40.26
2023-04-10T13:22:45.629Z,40.12
2023-04-10T13:25:12.100Z,41.58
2023-04-10T13:27:38.589Z,40.14
2023-04-10T13:30:05.326Z,42.68
2023-04-10T13:32:31.707Z,40.50
2023-04-10T13:34:58.044Z,41.70
2023-04-10T13:37:24.488Z,41.11
2023-04-10T13:39:50.880Z,42.28
2023-04-10T13:42:17.210Z,41.44
2023-04-10T13:44:43.546Z,41.61
2023-04-10T13:47:09.967Z,40.24
2023-04-10T13:49:36.434Z,39.66
2023-04-10T13:52:02.774Z,43.45
2023-04-10T13:54:29.088Z,39.69
2023-04-10T13:56:56.063Z,40.35
2023-04-10T13:59:22.418Z,39.92
2023-04-10T14:01:50.958Z,40.09
2023-04-10T14:04:17.411Z,39.97
2023-04-10T14:06:43.804Z,40.55
2023-04-10T14:09:10.184Z,38.50
2023-04-10T14:11:36.529Z,40.05
2023-04-10T14:14:02.859Z,40.77
2023-04-10T14:16:29.275Z,39.82
2023-04-10T14:18:55.878Z,39.40
2023-04-10T14:21:22.361Z,40.34
2023-04-10T14:23:48.685Z,39.19
2023-04-10T14:26:15.022Z,38.91
2023-04-10T14:28:42.315Z,39.52
2023-04-10T14:31:08.673Z,40.41
2023-04-10T14:33:35.395Z,40.12
2023-04-10T14:36:01.782Z,42.34
2023-04-10T14:38:28.239Z,40.62
2023-04-10T14:40:54.580Z,39.17
2023-04-10T14:43:20.933Z,39.13
2023-04-10T14:45:47.246Z,39.29
2023-04-10T14:48:13.815Z,38.94
2023-04-10T14:50:40.557Z,38.78
2023-04-10T14:53:09.590Z,38.31
2023-04-10T14:55:36.874Z,38.18
2023-04-10T14:58:03.952Z,37.39
2023-04-10T15:00:30.431Z,38.23
2023-04-10T15:02:59.708Z,38.71
2023-04-10T15:05:26.752Z,37.99
2023-04-10T15:07:53.388Z,37.87
2023-04-10T15:10:19.714Z,39.25
2023-04-10T15:12:46.037Z,40.48
2023-04-10T15:15:12.401Z,39.02
2023-04-10T15:17:39.209Z,38.59
2023-04-10T15:20:05.904Z,38.31
2023-04-10T15:22:32.399Z,38.40
2023-04-10T15:24:58.807Z,38.74
2023-04-10T15:27:25.273Z,37.92
2023-04-10T15:29:51.595Z,37.58
2023-04-10T15:32:17.964Z,36.71
2023-04-10T15:34:44.401Z,38.80
2023-04-10T15:37:11.588Z,38.41
2023-04-10T15:39:38.039Z,37.90
2023-04-10T15:42:08.288Z,37.56
2023-04-10T15:44:34.739Z,37.54
2023-04-10T15:47:01.167Z,37.67
2023-04-10T15:49:37.206Z,37.30
2023-04-10T15:52:05.354Z,38.94
2023-04-10T15:54:33.019Z,38.78
2023-04-10T15:56:59.371Z,38.12
2023-04-10T15:59:25.709Z,37.46
2023-04-10T16:01:52.130Z,38.63
2023-04-10T16:04:18.579Z,38.04
2023-04-10T16:06:45.064Z,38.08
2023-04-10T16:09:24.866Z,38.86
2023-04-10T16:11:52.415Z,40.18
2023-04-10T16:14:19.111Z,38.02
2023-04-10T16:16:45.708Z,39.08
2023-04-10T16:19:12.098Z,39.79
2023-04-10T16:21:38.438Z,40.07
2023-04-10T16:24:04.927Z,38.49
2023-04-10T16:26:31.261Z,38.44
2023-04-10T16:28:57.624Z,39.02
2023-04-10T16:31:24.275Z,38.80
2023-04-10T16:33:50.747Z,38.83
2023-04-10T16:36:17.502Z,38.15
2023-04-10T16:38:44.562Z,38.78
2023-04-10T16:41:12.388Z,39.36
2023-04-10T16:43:39.192Z,39.62
2023-04-10T16:46:05.849Z,39.18
2023-04-10T16:48:34.281Z,39.96
2023-04-10T16:51:06.128Z,39.02
2023-04-10T16:53:32.899Z,39.32
2023-04-10T16:56:01.533Z,39.00
2023-04-10T16:58:29.988Z,38.93
2023-04-10T17:00:56.430Z,39.19
2023-04-10T17:03:22.794Z,39.40
2023-04-10T17:05:49.187Z,40.70
2023-04-10T17:08:15.616Z,41.18
2023-04-10T17:10:41.953Z,40.20
2023-04-10T17:13:08.306Z,39.48
2023-04-10T17:15:35.509Z,40.15
2023-04-10T17:18:01.927Z,41.71
2023-04-10T17:20:28.385Z,41.77
2023-04-10T17:22:54.719Z,41.01
2023-04-10T17:25:21.052Z,41.43
2023-04-10T17:27:47.385Z,40.90
2023-04-10T17:30:14.012Z,41.34
2023-04-10T17:32:41.786Z,41.51
2023-04-10T17:35:08.298Z,42.15
2023-04-10T17:37:34.645Z,41.55
2023-04-10T17:40:01.472Z,41.79
2023-04-10T17:42:27.814Z,42.24
2023-04-10T17:44:54.284Z,42.25
2023-04-10T17:47:20.730Z,41.89
2023-04-10T17:49:47.154Z,42.34
2023-04-10T17:52:13.484Z,42.65
2023-04-10T17:54:39.949Z,42.54
2023-04-10T17:57:06.424Z,42.83
2023-04-10T17:59:32.743Z,42.29
2023-04-10T18:01:59.160Z,41.70
2023-04-10T18:04:25.647Z,42.98
2023-04-10T18:06:52.021Z,43.35
2023-04-10T18:09:18.346Z,43.00
2023-04-10T18:11:44.843Z,42.98
2023-04-10T18:14:11.203Z,43.39
2023-04-10T18:16:37.596Z,43.88
2023-04-10T18:19:04.122Z,44.43
2023-04-10T18:21:31.708Z,43.97
2023-04-10T18:23:58.054Z,43.20
2023-04-10T18:26:24.471Z,42.80
2023-04-10T18:28:50.926Z,43.29
2023-04-10T18:31:19.089Z,43.38
2023-04-10T18:33:48.583Z,43.45
2023-04-10T18:36:24.157Z,44.01
2023-04-10T18:38:51.322Z,43.34
2023-04-10T18:41:17.758Z,43.47
2023-04-10T18:43:48.690Z,43.73
2023-04-10T18:46:20.533Z,43.63
2023-04-10T18:48:50.227Z,43.70
2023-04-10T18:51:16.709Z,43.88
2023-04-10T18:53:43.108Z,43.31
2023-04-10T18:56:09.454Z,43.32
2023-04-10T18:58:35.785Z,43.36
2023-04-10T19:01:02.298Z,44.09
2023-04-10T19:03:28.864Z,43.70
2023-04-10T19:05:55.578Z,43.60
2023-04-10T19:08:21.953Z,43.98
2023-04-10T19:10:48.342Z,43.94
2023-04-10T19:13:14.779Z,43.40
2023-04-10T19:15:41.699Z,43.18
2023-04-10T19:18:09.013Z,43.18
2023-04-10T19:20:52.259Z,43.98
2023-04-10T19:23:20.441Z,43.52
2023-04-10T19:25:47.063Z,43.49
2023-04-10T19:28:13.435Z,44.08
2023-04-10T19:30:39.834Z,44.28
2023-04-10T19:33:06.275Z,44.30
2023-04-10T19:35:32.661Z,44.35
2023-04-10T19:37:59.062Z,44.68
2023-04-10T19:40:25.480Z,44.98
2023-04-10T19:42:52.122Z,45.41
2023-04-10T19:45:18.599Z,45.39
2023-04-10T19:47:44.940Z,44.77
2023-04-10T19:50:11.314Z,44.65
2023-04-10T19:52:37.858Z,45.31
2023-04-10T19:55:05.250Z,45.89
2023-04-10T19:57:31.958Z,44.77
2023-04-10T19:59:58.850Z,47.12
2023-04-10T20:02:25.406Z,47.15
2023-04-10T20:04:51.994Z,47.42
2023-04-10T20:07:18.354Z,47.75
2023-04-10T20:09:44.703Z,47.42
2023-04-10T20:12:11.300Z,49.61
2023-04-10T20:14:38.498Z,50.03
2023-04-10T20:17:04.948Z,48.97
2023-04-10T20:19:31.315Z,49.80
2023-04-10T20:21:59.204Z,50.81
2023-04-10T20:24:27.170Z,49.74
2023-04-10T20:26:53.495Z,48.89
2023-04-10T20:29:19.868Z,49.62
2023-04-10T20:31:46.261Z,49.30
2023-04-10T20:34:12.583Z,50.91
2023-04-10T20:36:38.912Z,51.09
2023-04-10T20:39:05.484Z,54.69
2023-04-10T20:41:32.214Z,57.01
2023-04-10T20:43:59.546Z,57.71
2023-04-10T20:46:27.442Z,53.40
2023-04-10T20:48:55.700Z,55.10
2023-04-10T20:51:22.329Z,53.06
2023-04-10T20:53:48.696Z,53.06
2023-04-10T20:56:15.441Z,54.49
2023-04-10T20:58:41.782Z,56.08
2023-04-10T21:01:09.576Z,57.84
2023-04-10T21:03:36.427Z,54.61
2023-04-10T21:06:03.627Z,53.56
2023-04-10T21:08:30.098Z,54.55
2023-04-10T21:10:58.800Z,54.32
2023-04-10T21:13:25.459Z,51.56
2023-04-10T21:15:51.806Z,53.55
2023-04-10T21:18:18.169Z,52.44
2023-04-10T21:20:44.766Z,52.28
2023-04-10T21:23:11.096Z,52.55
2023-04-10T21:25:38.485Z,51.82
2023-04-10T21:28:04.943Z,51.41
2023-04-10T21:30:31.271Z,51.33
2023-04-10T21:32:57.871Z,51.49
2023-04-10T21:35:24.785Z,50.42
2023-04-10T21:37:56.545Z,51.05
2023-04-10T21:40:24.643Z,50.54
2023-04-10T21:42:51.589Z,50.85
2023-04-10T21:45:17.938Z,51.07
2023-04-10T21:47:44.305Z,51.46
2023-04-10T21:50:10.854Z,50.68
2023-04-10T21:52:37.223Z,52.50
2023-04-10T21:55:05.669Z,51.80
2023-04-10T21:57:32.605Z,51.34
2023-04-10T21:59:58.978Z,51.26
2023-04-10T22:02:25.636Z,51.05
2023-04-10T22:04:54.745Z,51.48
2023-04-10T22:07:21.397Z,51.52
2023-04-10T22:09:47.803Z,51.31
2023-04-10T22:12:14.150Z,51.89
2023-04-10T22:14:41.363Z,51.61
2023-04-10T22:17:07.816Z,52.33
2023-04-10T22:19:34.420Z,51.73
2023-04-10T22:22:00.820Z,52.08
2023-04-10T22:24:27.431Z,52.79
2023-04-10T22:26:53.743Z,51.67
2023-04-10T22:29:20.099Z,51.85
2023-04-10T22:31:46.593Z,52.04
2023-04-10T22:34:12.918Z,51.67
2023-04-10T22:36:40.327Z,50.82
2023-04-10T22:39:06.644Z,51.50
2023-04-10T22:41:33.056Z,51.71
2023-04-10T22:43:59.515Z,53.01
2023-04-10T22:46:26.137Z,51.66
2023-04-10T22:48:53.434Z,52.09
2023-04-10T22:51:20.184Z,52.19
2023-04-10T22:53:47.125Z,52.19
2023-04-10T22:56:13.554Z,52.11
2023-04-10T22:58:40.417Z,53.37
2023-04-10T23:01:06.987Z,52.24
2023-04-10T23:03:33.692Z,53.49
2023-04-10T23:06:00.150Z,53.15
2023-04-10T23:08:26.867Z,53.50
2023-04-10T23:10:53.831Z,53.94
2023-04-10T23:13:20.596Z,54.27
2023-04-10T23:15:53.964Z,54.00
2023-04-10T23:18:20.541Z,54.00
2023-04-10T23:20:47.391Z,53.84
2023-04-10T23:23:13.988Z,53.90
2023-04-10T23:25:40.417Z,53.79
2023-04-10T23:28:07.026Z,54.59
2023-04-10T23:30:33.457Z,54.47
2023-04-10T23:32:59.880Z,54.60
2023-04-10T23:35:26.845Z,54.50
2023-04-10T23:37:53.535Z,54.86
2023-04-10T23:40:21.192Z,54.21
2023-04-10T23:42:47.797Z,54.24
2023-04-10T23:45:14.146Z,54.72
2023-04-10T23:47:40.944Z,55.38
2023-04-10T23:50:08.174Z,54.93
2023-04-10T23:52:34.492Z,55.38
2023-04-10T23:55:00.811Z,55.71
2023-04-10T23:57:27.126Z,55.31
2023-04-10T23:59:53.448Z,55.78
